Time,TemperatureF,DewpointF,PressureIn,WindDirection,WindDirectionDegrees,WindSpeedMPH,WindSpeedGustMPH,Humidity,HourlyPrecipIn,Conditions,Clouds,dailyrainin,SoftwareType,DateUTC
2013-05-18 00:01:00,64.7,57.0,30.15,SW,230,0.0,0.0,76,0.00,,,0.00,weatherlink.com 1.10,2013-05-18 04:01:00,
2013-05-18 00:16:00,64.1,56.0,30.14,SW,230,0.0,0.0,75,0.00,,,0.00,weatherlink.com 1.10,2013-05-18 04:16:00,
2013-05-18 00:31:00,63.6,56.0,30.14,SW,230,0.0,0.0,77,0.00,,,0.00,weatherlink.com 1.10,2013-05-18 04:31:00,
2013-05-18 00:46:00,63.3,56.0,30.14,SW,230,0.0,0.0,77,0.00,,,0.00,weatherlink.com 1.10,2013-05-18 04:46:00,
2013-05-18 01:01:00,63.2,56.0,30.14,SW,230,0.0,0.0,77,0.00,,,0.00,weatherlink.com 1.10,2013-05-18 05:01:00,
2013-05-18 01:16:00,62.7,56.0,30.14,SW,230,0.0,0.0,79,0.00,,,0.00,weatherlink.com 1.10,2013-05-18 05:16:00,
2013-05-18 01:31:00,62.4,55.0,30.13,SW,230,0.0,2.0,78,0.00,,,0.00,weatherlink.com 1.10,2013-05-18 05:31:00,
2013-05-18 01:46:00,62.3,56.0,30.13,SW,230,0.0,0.0,79,0.00,,,0.00,weatherlink.com 1.10,2013-05-18 05:46:00,
2013-05-18 02:01:00,62.0,56.0,30.12,SW,230,0.0,0.0,80,0.00,,,0.00,weatherlink.com 1.10,2013-05-18 06:01:00,
2013-05-18 02:16:00,61.9,56.0,30.12,SW,230,0.0,0.0,81,0.00,,,0.00,weatherlink.com 1.10,2013-05-18 06:16:00,
2013-05-18 02:31:00,61.9,56.0,30.12,SW,230,0.0,0.0,81,0.00,,,0.00,weatherlink.com 1.10,2013-05-18 06:31:00,
2013-05-18 02:46:00,61.8,57.0,30.11,SW,230,0.0,1.0,83,0.00,,,0.00,weatherlink.com 1.10,2013-05-18 06:46:00,
2013-05-18 03:01:00,62.0,57.0,30.11,SW,230,0.0,0.0,83,0.00,,,0.00,weatherlink.com 1.10,2013-05-18 07:01:00,
2013-05-18 03:16:00,62.0,57.0,30.11,SW,230,0.0,0.0,83,0.00,,,0.00,weatherlink.com 1.10,2013-05-18 07:16:00,
2013-05-18 03:31:00,62.0,57.0,30.10,SW,230,0.0,0.0,83,0.00,,,0.00,weatherlink.com 1.10,2013-05-18 07:31:00,
2013-05-18 03:46:00,62.3,57.0,30.10,SW,230,0.0,0.0,84,0.00,,,0.00,weatherlink.com 1.10,2013-05-18 07:46:00,
2013-05-18 04:01:00,62.7,58.0,30.10,SW,230,0.0,0.0,83,0.00,,,0.00,weatherlink.com 1.10,2013-05-18 08:01:00,
2013-05-18 04:16:00,62.9,58.0,30.10,SW,230,0.0,1.0,83,0.00,,,0.00,weatherlink.com 1.10,2013-05-18 08:16:00,
2013-05-18 04:31:00,63.1,58.0,30.10,SW,230,0.0,0.0,83,0.00,,,0.00,weatherlink.com 1.10,2013-05-18 08:31:00,
2013-05-18 04:47:00,63.5,58.0,30.10,SW,230,0.0,0.0,83,0.00,,,0.00,weatherlink.com 1.10,2013-05-18 08:47:00,
2013-05-18 05:01:00,63.8,58.0,30.11,SW,230,0.0,1.0,82,0.00,,,0.00,weatherlink.com 1.10,2013-05-18 09:01:00,
2013-05-18 05:16:00,63.5,59.0,30.11,WSW,242,0.0,1.0,85,0.02,,,0.02,weatherlink.com 1.10,2013-05-18 09:16:00,
2013-05-18 05:31:00,61.7,59.0,30.12,SW,235,0.0,2.0,90,0.05,,,0.05,weatherlink.com 1.10,2013-05-18 09:31:00,
2013-05-18 05:46:00,60.4,58.0,30.12,SW,235,0.0,0.0,92,0.10,,,0.10,weatherlink.com 1.10,2013-05-18 09:46:00,
2013-05-18 06:02:00,59.6,58.0,30.12,SW,235,0.0,0.0,93,0.16,,,0.16,weatherlink.com 1.10,2013-05-18 10:02:00,
2013-05-18 06:17:00,59.4,58.0,30.12,SW,235,0.0,0.0,95,0.16,,,0.18,weatherlink.com 1.10,2013-05-18 10:17:00,
2013-05-18 06:32:00,59.5,58.0,30.11,SW,235,1.0,1.0,96,0.16,,,0.21,weatherlink.com 1.10,2013-05-18 10:32:00,
2013-05-18 06:47:00,59.8,59.0,30.12,SW,235,0.0,2.0,96,0.15,,,0.25,weatherlink.com 1.10,2013-05-18 10:47:00,
2013-05-18 07:02:00,60.0,59.0,30.13,SW,235,0.0,1.0,97,0.15,,,0.31,weatherlink.com 1.10,2013-05-18 11:02:00,
2013-05-18 07:17:00,59.9,59.0,30.14,SW,235,0.0,0.0,97,0.25,,,0.43,weatherlink.com 1.10,2013-05-18 11:17:00,
2013-05-18 07:32:00,59.9,59.0,30.15,SW,235,0.0,0.0,97,0.28,,,0.50,weatherlink.com 1.10,2013-05-18 11:32:00,
2013-05-18 07:47:00,59.9,59.0,30.15,SW,235,0.0,0.0,97,0.30,,,0.55,weatherlink.com 1.10,2013-05-18 11:47:00,
2013-05-18 08:02:00,60.0,59.0,30.14,SW,235,0.0,0.0,97,0.28,,,0.60,weatherlink.com 1.10,2013-05-18 12:02:00,
2013-05-18 08:17:00,60.3,60.0,30.14,SW,235,0.0,1.0,97,0.19,,,0.62,weatherlink.com 1.10,2013-05-18 12:17:00,
2013-05-18 08:32:00,60.5,60.0,30.14,SW,232,0.0,2.0,97,0.14,,,0.64,weatherlink.com 1.10,2013-05-18 12:32:00,
2013-05-18 08:47:00,60.6,60.0,30.14,SW,232,0.0,1.0,97,0.11,,,0.67,weatherlink.com 1.10,2013-05-18 12:47:00,
2013-05-18 09:02:00,60.6,60.0,30.14,SW,232,0.0,2.0,97,0.08,,,0.69,weatherlink.com 1.10,2013-05-18 13:02:00,
2013-05-18 09:17:00,60.8,60.0,30.15,SW,232,0.0,0.0,98,0.13,,,0.75,weatherlink.com 1.10,2013-05-18 13:17:00,
2013-05-18 09:32:00,60.8,60.0,30.15,SW,232,0.0,1.0,98,0.15,,,0.79,weatherlink.com 1.10,2013-05-18 13:32:00,
2013-05-18 09:47:00,61.0,61.0,30.15,SW,232,0.0,1.0,98,0.14,,,0.81,weatherlink.com 1.10,2013-05-18 13:47:00,
2013-05-18 10:02:00,61.2,61.0,30.15,SW,232,0.0,0.0,98,0.13,,,0.82,weatherlink.com 1.10,2013-05-18 14:02:00,
2013-05-18 10:17:00,61.8,61.0,30.15,SW,232,0.0,0.0,98,0.06,,,0.82,weatherlink.com 1.10,2013-05-18 14:17:00,
2013-05-18 10:32:00,62.1,62.0,30.15,SW,232,0.0,1.0,98,0.03,,,0.82,weatherlink.com 1.10,2013-05-18 14:32:00,
2013-05-18 10:47:00,62.3,62.0,30.15,SW,232,0.0,1.0,98,0.01,,,0.82,weatherlink.com 1.10,2013-05-18 14:47:00,
2013-05-18 11:02:00,62.3,62.0,30.14,SW,232,0.0,0.0,98,0.00,,,0.82,weatherlink.com 1.10,2013-05-18 15:02:00,
2013-05-18 11:17:00,62.6,62.0,30.15,SW,236,0.0,1.0,98,0.00,,,0.82,weatherlink.com 1.10,2013-05-18 15:17:00,
2013-05-18 11:32:00,62.8,62.0,30.15,SW,236,0.0,1.0,98,0.00,,,0.82,weatherlink.com 1.10,2013-05-18 15:32:00,
2013-05-18 11:47:00,62.9,62.0,30.14,SW,236,0.0,0.0,98,0.00,,,0.82,weatherlink.com 1.10,2013-05-18 15:47:00,
2013-05-18 12:02:00,62.9,62.0,30.14,SW,236,0.0,1.0,98,0.00,,,0.82,weatherlink.com 1.10,2013-05-18 16:02:00,
2013-05-18 12:17:00,63.3,63.0,30.14,SW,236,0.0,1.0,98,0.00,,,0.82,weatherlink.com 1.10,2013-05-18 16:17:00,
2013-05-18 12:32:00,63.5,63.0,30.14,SW,236,0.0,1.0,98,0.00,,,0.82,weatherlink.com 1.10,2013-05-18 16:32:00,
2013-05-18 12:47:00,63.6,63.0,30.14,SW,236,0.0,1.0,98,0.00,,,0.82,weatherlink.com 1.10,2013-05-18 16:47:00,
2013-05-18 13:02:00,64.1,64.0,30.13,SW,230,1.0,1.0,98,0.00,,,0.82,weatherlink.com 1.10,2013-05-18 17:02:00,
2013-05-18 13:17:00,64.5,64.0,30.13,WSW,240,0.0,3.0,98,0.00,,,0.82,weatherlink.com 1.10,2013-05-18 17:17:00,
2013-05-18 13:32:00,64.8,64.0,30.13,WSW,240,0.0,1.0,98,0.00,,,0.82,weatherlink.com 1.10,2013-05-18 17:32:00,
2013-05-18 13:47:00,64.6,64.0,30.13,WSW,238,0.0,2.0,96,0.01,,,0.83,weatherlink.com 1.10,2013-05-18 17:47:00,
2013-05-18 14:02:00,64.4,63.0,30.12,SW,233,0.0,2.0,96,0.01,,,0.83,weatherlink.com 1.10,2013-05-18 18:02:00,
2013-05-18 14:17:00,65.3,65.0,30.12,SW,233,0.0,1.0,97,0.01,,,0.83,weatherlink.com 1.10,2013-05-18 18:17:00,
2013-05-18 14:32:00,65.1,64.0,30.12,SW,229,0.0,2.0,95,0.01,,,0.83,weatherlink.com 1.10,2013-05-18 18:32:00,
2013-05-18 14:47:00,64.5,63.0,30.11,SW,229,0.0,1.0,95,0.00,,,0.83,weatherlink.com 1.10,2013-05-18 18:47:00,
2013-05-18 15:02:00,64.1,62.0,30.12,SW,228,0.0,1.0,94,0.00,,,0.83,weatherlink.com 1.10,2013-05-18 19:02:00,
2013-05-18 15:17:00,64.2,63.0,30.11,SW,228,0.0,0.0,94,0.00,,,0.83,weatherlink.com 1.10,2013-05-18 19:17:00,
2013-05-18 15:32:00,64.2,62.0,30.11,SW,229,0.0,2.0,93,0.00,,,0.83,weatherlink.com 1.10,2013-05-18 19:32:00,
2013-05-18 15:47:00,64.2,63.0,30.11,SW,229,0.0,1.0,94,0.00,,,0.83,weatherlink.com 1.10,2013-05-18 19:47:00,
2013-05-18 16:02:00,64.3,63.0,30.11,SW,229,0.0,1.0,94,0.00,,,0.83,weatherlink.com 1.10,2013-05-18 20:02:00,
2013-05-18 16:17:00,64.5,63.0,30.11,SW,229,0.0,0.0,95,0.00,,,0.83,weatherlink.com 1.10,2013-05-18 20:17:00,
2013-05-18 16:32:00,64.4,63.0,30.11,SW,229,0.0,0.0,94,0.00,,,0.83,weatherlink.com 1.10,2013-05-18 20:32:00,
2013-05-18 16:47:00,64.1,62.0,30.11,SW,227,1.0,2.0,94,0.03,,,0.86,weatherlink.com 1.10,2013-05-18 20:47:00,
2013-05-18 17:02:00,63.7,63.0,30.11,SW,227,0.0,0.0,96,0.03,,,0.86,weatherlink.com 1.10,2013-05-18 21:02:00,
2013-05-18 17:17:00,64.2,63.0,30.10,SW,227,0.0,0.0,97,0.03,,,0.86,weatherlink.com 1.10,2013-05-18 21:17:00,
2013-05-18 17:32:00,64.5,64.0,30.10,SW,227,0.0,0.0,97,0.03,,,0.86,weatherlink.com 1.10,2013-05-18 21:32:00,
2013-05-18 17:47:00,64.3,63.0,30.10,SW,227,0.0,1.0,96,0.00,,,0.86,weatherlink.com 1.10,2013-05-18 21:47:00,
2013-05-18 18:02:00,64.2,63.0,30.11,SW,227,0.0,0.0,97,0.00,,,0.86,weatherlink.com 1.10,2013-05-18 22:02:00,
2013-05-18 18:17:00,64.5,64.0,30.11,SW,228,0.0,0.0,97,0.00,,,0.86,weatherlink.com 1.10,2013-05-18 22:17:00,
2013-05-18 18:32:00,64.4,64.0,30.11,SW,228,0.0,0.0,97,0.00,,,0.86,weatherlink.com 1.10,2013-05-18 22:32:00,
2013-05-18 18:47:00,64.3,63.0,30.11,SW,228,0.0,1.0,96,0.00,,,0.86,weatherlink.com 1.10,2013-05-18 22:47:00,
2013-05-18 19:02:00,64.0,63.0,30.11,SW,228,0.0,0.0,96,0.00,,,0.86,weatherlink.com 1.10,2013-05-18 23:02:00,
2013-05-18 19:17:00,63.9,63.0,30.11,SW,228,0.0,1.0,96,0.00,,,0.86,weatherlink.com 1.10,2013-05-18 23:17:00,
2013-05-18 19:32:00,64.0,63.0,30.12,SW,228,0.0,0.0,96,0.00,,,0.86,weatherlink.com 1.10,2013-05-18 23:32:00,
2013-05-18 19:47:00,63.8,63.0,30.13,SW,228,0.0,0.0,96,0.00,,,0.86,weatherlink.com 1.10,2013-05-18 23:47:00,
2013-05-18 20:02:00,63.5,62.0,30.12,SW,228,0.0,0.0,95,0.00,,,0.86,weatherlink.com 1.10,2013-05-19 00:02:00,
2013-05-18 20:17:00,63.3,62.0,30.12,SW,228,0.0,0.0,95,0.00,,,0.86,weatherlink.com 1.10,2013-05-19 00:17:00,
2013-05-18 20:32:00,63.1,62.0,30.13,SW,227,0.0,1.0,95,0.00,,,0.86,weatherlink.com 1.10,2013-05-19 00:32:00,
2013-05-18 20:47:00,63.0,62.0,30.13,SW,228,0.0,0.0,95,0.00,,,0.86,weatherlink.com 1.10,2013-05-19 00:47:00,
2013-05-18 21:02:00,62.9,62.0,30.13,SW,227,0.0,0.0,95,0.00,,,0.86,weatherlink.com 1.10,2013-05-19 01:02:00,
2013-05-18 21:17:00,62.7,61.0,30.13,SW,228,0.0,0.0,95,0.00,,,0.86,weatherlink.com 1.10,2013-05-19 01:17:00,
2013-05-18 21:32:00,62.6,62.0,30.14,SW,228,0.0,0.0,96,0.00,,,0.86,weatherlink.com 1.10,2013-05-19 01:32:00,
2013-05-18 21:47:00,62.5,61.0,30.14,SW,228,0.0,0.0,95,0.00,,,0.86,weatherlink.com 1.10,2013-05-19 01:47:00,
2013-05-18 22:02:00,62.4,61.0,30.14,SW,228,0.0,0.0,95,0.00,,,0.86,weatherlink.com 1.10,2013-05-19 02:02:00,
2013-05-18 22:17:00,62.3,61.0,30.14,SW,228,0.0,0.0,95,0.00,,,0.86,weatherlink.com 1.10,2013-05-19 02:17:00,
2013-05-18 22:32:00,62.2,61.0,30.14,SW,227,0.0,1.0,95,0.00,,,0.86,weatherlink.com 1.10,2013-05-19 02:32:00,
2013-05-18 22:47:00,62.1,61.0,30.14,SW,228,0.0,1.0,95,0.00,,,0.86,weatherlink.com 1.10,2013-05-19 02:47:00,
2013-05-18 23:02:00,62.1,61.0,30.14,SW,228,0.0,0.0,95,0.00,,,0.86,weatherlink.com 1.10,2013-05-19 03:02:00,
2013-05-18 23:17:00,62.0,61.0,30.14,SW,227,0.0,1.0,95,0.00,,,0.86,weatherlink.com 1.10,2013-05-19 03:17:00,
2013-05-18 23:32:00,62.0,61.0,30.14,SW,228,0.0,0.0,95,0.00,,,0.86,weatherlink.com 1.10,2013-05-19 03:32:00,
2013-05-18 23:47:00,62.0,61.0,30.14,SW,227,0.0,0.0,96,0.00,,,0.86,weatherlink.com 1.10,2013-05-19 03:47:00,